Time;durP1;ratioP1;P1;durP2;ratioP2;P2;SDS_P1;SDS_P2;PMS_P1;PMS_P2;Temp;Humidity;BMP_temperature;BMP_pressure;BME280_temperature;BME280_humidity;BME280_pressure;Samples;Min_cycle;Max_cycle;Signal;HPM_P1;HPM_P2
2021/06/24 00:00:44;;;;;;;4.07;2.50;;;16.60;85.10;;;;;;5108125;28;20234;-73
2021/06/24 00:03:11;;;;;;;8.35;3.15;;;16.60;85.20;;;;;;5105050;28;20205;-73
2021/06/24 00:05:38;;;;;;;7.43;3.00;;;16.60;85.30;;;;;;5108163;28;20320;-73
2021/06/24 00:08:07;;;;;;;9.63;2.90;;;16.60;85.50;;;;;;5105535;28;20224;-73
2021/06/24 00:10:35;;;;;;;11.18;3.25;;;16.60;85.70;;;;;;5107641;28;20200;-73
2021/06/24 00:13:02;;;;;;;4.85;2.75;;;16.50;85.70;;;;;;5099898;28;20216;-74
2021/06/24 00:15:29;;;;;;;7.72;3.30;;;16.50;85.90;;;;;;5106149;28;20229;-74
2021/06/24 00:17:56;;;;;;;9.07;3.20;;;16.50;86.10;;;;;;5104859;28;20253;-73
2021/06/24 00:20:23;;;;;;;6.60;3.10;;;16.50;86.30;;;;;;5107168;28;20201;-73
2021/06/24 00:22:51;;;;;;;7.75;3.33;;;16.50;86.50;;;;;;5107427;28;20201;-74
2021/06/24 00:25:19;;;;;;;7.72;3.13;;;16.50;86.60;;;;;;5106348;28;20217;-74
2021/06/24 00:27:46;;;;;;;11.32;3.55;;;16.50;86.70;;;;;;5106645;28;20638;-74
2021/06/24 00:30:14;;;;;;;6.35;3.50;;;16.40;86.90;;;;;;5107697;28;20220;-72
2021/06/24 00:32:41;;;;;;;9.20;3.95;;;16.40;87.10;;;;;;5107409;28;20193;-73
2021/06/24 00:35:10;;;;;;;9.00;4.00;;;16.40;87.20;;;;;;5107603;28;20205;-73
2021/06/24 00:37:38;;;;;;;10.35;4.07;;;16.40;87.30;;;;;;5106485;28;20198;-73
2021/06/24 00:40:07;;;;;;;6.90;3.50;;;16.30;87.50;;;;;;5107568;28;20197;-74
2021/06/24 00:42:36;;;;;;;8.35;3.45;;;16.30;87.60;;;;;;5105614;28;20204;-73
2021/06/24 00:45:04;;;;;;;9.18;3.55;;;16.30;87.80;;;;;;5108610;28;20353;-74
2021/06/24 00:47:31;;;;;;;5.57;3.50;;;16.30;87.90;;;;;;5106945;28;20216;-72
2021/06/24 00:49:58;;;;;;;6.90;3.55;;;16.30;88.00;;;;;;5107495;28;20549;-73
2021/06/24 00:52:25;;;;;;;6.00;3.65;;;16.30;88.20;;;;;;5105984;28;20221;-72
2021/06/24 00:54:52;;;;;;;10.18;3.63;;;16.20;88.30;;;;;;5107453;28;20204;-72
2021/06/24 00:57:21;;;;;;;9.98;3.78;;;16.20;88.50;;;;;;5104003;28;20292;-72
2021/06/24 00:59:49;;;;;;;7.03;3.67;;;16.20;88.70;;;;;;5107148;28;20205;-71
2021/06/24 01:02:16;;;;;;;8.98;3.75;;;16.20;88.90;;;;;;5106708;28;20216;-72
2021/06/24 01:04:44;;;;;;;12.95;4.03;;;16.20;89.00;;;;;;5105726;28;20230;-72
2021/06/24 01:07:11;;;;;;;5.38;3.92;;;16.10;89.20;;;;;;5103369;28;20294;-73
2021/06/24 01:09:53;;;;;;;5.55;3.83;;;16.10;89.40;;;;;;5106208;28;20193;-73
2021/06/24 01:12:21;;;;;;;6.35;4.13;;;16.10;89.60;;;;;;5103779;28;20294;-73
2021/06/24 01:14:50;;;;;;;7.55;4.10;;;16.10;89.70;;;;;;5109187;28;20229;-74
2021/06/24 01:17:17;;;;;;;7.78;3.83;;;16.10;89.90;;;;;;5105119;28;20514;-73
2021/06/24 01:19:44;;;;;;;6.28;3.72;;;16.10;90.00;;;;;;5109064;28;20224;-73
2021/06/24 01:22:12;;;;;;;7.80;4.10;;;16.10;90.00;;;;;;5105994;28;20205;-73
2021/06/24 01:24:41;;;;;;;7.68;3.92;;;16.00;90.10;;;;;;5109216;28;20687;-74
2021/06/24 01:27:08;;;;;;;7.75;3.90;;;16.00;90.20;;;;;;5106804;28;20227;-74
2021/06/24 01:29:36;;;;;;;14.00;4.45;;;16.00;90.20;;;;;;5106541;28;20225;-72
2021/06/24 01:32:04;;;;;;;6.68;3.65;;;16.00;90.30;;;;;;5105833;28;20246;-72
2021/06/24 01:34:32;;;;;;;10.13;4.05;;;15.90;90.30;;;;;;5106984;28;20201;-71
2021/06/24 01:36:59;;;;;;;8.45;4.10;;;15.90;90.40;;;;;;5108263;28;20622;-72
2021/06/24 01:39:26;;;;;;;8.52;4.05;;;15.90;90.50;;;;;;5109660;28;20485;-72
2021/06/24 01:41:59;;;;;;;10.35;4.28;;;15.90;90.60;;;;;;5109604;28;20193;-73
2021/06/24 01:44:30;;;;;;;10.35;4.00;;;15.90;90.60;;;;;;5109380;28;20228;-73
2021/06/24 01:46:58;;;;;;;4.53;3.80;;;15.80;90.70;;;;;;5109034;28;20700;-74
2021/06/24 01:49:26;;;;;;;6.03;3.78;;;15.80;90.80;;;;;;5112125;27;20196;-73
2021/06/24 01:51:53;;;;;;;8.88;4.10;;;15.80;90.90;;;;;;5109779;28;20192;-75
2021/06/24 01:54:20;;;;;;;6.90;3.78;;;15.80;90.90;;;;;;5110854;28;20226;-74
2021/06/24 01:56:47;;;;;;;13.20;3.85;;;15.80;91.00;;;;;;5109568;28;22010;-73
2021/06/24 01:59:16;;;;;;;7.03;4.07;;;15.80;91.10;;;;;;5111579;28;20197;-73
2021/06/24 02:01:58;;;;;;;8.38;4.10;;;15.80;91.20;;;;;;5103168;28;20218;-73
2021/06/24 02:04:46;;;;;;;13.82;4.53;;;15.70;91.20;;;;;;5107727;28;20237;-73
2021/06/24 02:07:13;;;;;;;8.80;3.80;;;15.70;91.20;;;;;;5111119;28;20209;-73
2021/06/24 02:09:59;;;;;;;7.18;4.35;;;15.70;91.30;;;;;;5107680;28;20306;-73
2021/06/24 02:12:29;;;;;;;9.40;4.88;;;15.70;91.20;;;;;;5110042;28;20231;-73
2021/06/24 02:14:57;;;;;;;7.20;4.28;;;15.70;91.30;;;;;;5110319;28;20201;-73
2021/06/24 02:17:25;;;;;;;8.15;4.30;;;15.70;91.40;;;;;;5109979;28;20270;-74
2021/06/24 02:19:52;;;;;;;10.70;4.43;;;15.70;91.40;;;;;;5109977;28;20228;-73
2021/06/24 02:22:39;;;;;;;11.10;4.40;;;15.70;91.50;;;;;;5110629;28;20572;-73
2021/06/24 02:25:12;;;;;;;11.90;3.90;;;15.60;91.50;;;;;;5106366;28;20288;-74
2021/06/24 02:28:04;;;;;;;8.35;4.20;;;15.60;91.60;;;;;;5108139;28;20217;-73
2021/06/24 02:30:37;;;;;;;6.88;3.97;;;15.60;91.60;;;;;;5108497;28;20295;-73
2021/06/24 02:33:06;;;;;;;12.02;4.82;;;15.60;91.70;;;;;;5111634;28;20197;-72
2021/06/24 02:35:36;;;;;;;9.40;4.50;;;15.50;91.70;;;;;;5108176;28;20687;-72
2021/06/24 02:38:08;;;;;;;7.68;4.18;;;15.50;91.80;;;;;;5109550;28;20211;-71
2021/06/24 02:40:38;;;;;;;8.25;4.25;;;15.50;91.80;;;;;;5111282;28;20200;-73
2021/06/24 02:43:07;;;;;;;6.85;4.28;;;15.50;91.90;;;;;;5109944;28;20317;-73
2021/06/24 02:45:44;;;;;;;7.38;4.70;;;15.50;91.90;;;;;;5107862;28;20205;-73
2021/06/24 02:48:18;;;;;;;7.05;4.57;;;15.50;92.00;;;;;;5109075;28;20785;-73
2021/06/24 02:50:46;;;;;;;6.80;4.25;;;15.50;92.10;;;;;;5109615;28;20584;-72
2021/06/24 02:53:14;;;;;;;13.07;4.63;;;15.40;92.10;;;;;;5108320;28;20227;-71
2021/06/24 02:55:43;;;;;;;13.05;4.75;;;15.40;92.20;;;;;;5109867;28;20288;-72
2021/06/24 02:58:12;;;;;;;7.07;4.40;;;15.40;92.30;;;;;;5107264;28;20201;-73
2021/06/24 03:00:54;;;;;;;6.93;4.13;;;15.50;92.40;;;;;;5105185;28;22650;-72
2021/06/24 03:03:43;;;;;;;7.13;4.57;;;15.40;92.30;;;;;;5103228;27;20205;-72
2021/06/24 03:06:18;;;;;;;14.00;4.75;;;15.40;92.30;;;;;;5105331;28;20767;-72
2021/06/24 03:08:45;;;;;;;6.47;4.20;;;15.40;92.40;;;;;;5106838;28;20562;-73
2021/06/24 03:11:14;;;;;;;10.52;5.30;;;15.40;92.50;;;;;;5110161;28;20208;-72
2021/06/24 03:13:48;;;;;;;9.70;4.47;;;15.40;92.60;;;;;;5107246;28;20258;-73
2021/06/24 03:16:18;;;;;;;8.82;4.55;;;15.40;92.60;;;;;;5110985;28;20205;-72
2021/06/24 03:18:47;;;;;;;8.38;4.43;;;15.30;92.70;;;;;;5109107;28;20793;-73
2021/06/24 03:21:14;;;;;;;10.52;5.00;;;15.30;92.70;;;;;;5110660;27;20200;-72
2021/06/24 03:23:41;;;;;;;8.10;4.63;;;15.30;92.80;;;;;;5108184;28;20202;-72
2021/06/24 03:26:08;;;;;;;7.32;4.53;;;15.30;92.90;;;;;;5105945;28;20281;-73
2021/06/24 03:28:35;;;;;;;9.07;4.80;;;15.30;93.00;;;;;;5103474;28;20278;-72
2021/06/24 03:31:11;;;;;;;9.65;5.05;;;15.30;93.00;;;;;;5106705;28;20196;-73
2021/06/24 03:33:39;;;;;;;6.43;5.13;;;15.20;93.10;;;;;;5108334;28;20526;-74
2021/06/24 03:36:09;;;;;;;8.25;4.97;;;15.20;93.20;;;;;;5108577;28;20212;-71
2021/06/24 03:38:38;;;;;;;9.70;4.88;;;15.20;93.30;;;;;;5107811;28;20193;-72
2021/06/24 03:41:05;;;;;;;9.75;4.85;;;15.20;93.40;;;;;;5104248;28;20197;-73
2021/06/24 03:43:32;;;;;;;9.18;4.95;;;15.20;93.40;;;;;;5101790;28;20581;-72
2021/06/24 03:45:59;;;;;;;8.30;5.20;;;15.20;93.50;;;;;;5107053;28;20345;-72
2021/06/24 03:48:33;;;;;;;9.23;4.80;;;15.20;93.60;;;;;;5103543;28;20225;-72
2021/06/24 03:51:11;;;;;;;15.15;5.47;;;15.20;93.60;;;;;;5108562;28;20228;-73
2021/06/24 03:53:39;;;;;;;8.50;5.05;;;15.20;93.60;;;;;;5107922;28;20251;-71
2021/06/24 03:56:07;;;;;;;10.60;5.35;;;15.20;93.60;;;;;;5107529;28;20208;-74
2021/06/24 03:58:46;;;;;;;6.63;4.90;;;15.20;93.70;;;;;;5102081;28;20281;-74
2021/06/24 04:01:14;;;;;;;9.43;5.10;;;15.20;93.70;;;;;;5106720;28;20204;-72
2021/06/24 04:03:41;;;;;;;8.13;5.40;;;15.20;93.80;;;;;;5102617;28;20206;-73
2021/06/24 04:06:13;;;;;;;8.48;4.97;;;15.20;93.80;;;;;;5108394;28;20263;-73
2021/06/24 04:08:40;;;;;;;21.15;6.15;;;15.20;93.90;;;;;;5106891;28;20591;-75
2021/06/24 04:11:24;;;;;;;8.18;4.78;;;15.20;93.90;;;;;;5105270;28;20210;-73
2021/06/24 04:13:58;;;;;;;10.38;5.47;;;15.20;93.90;;;;;;5100569;28;20233;-73
2021/06/24 04:16:43;;;;;;;8.00;5.45;;;15.20;93.90;;;;;;5109390;28;20205;-73
2021/06/24 04:19:12;;;;;;;13.70;5.70;;;15.20;93.90;;;;;;5104255;28;20233;-72
2021/06/24 04:21:41;;;;;;;10.23;5.93;;;15.20;94.00;;;;;;5107086;28;20288;-73
2021/06/24 04:24:12;;;;;;;11.38;5.75;;;15.20;94.00;;;;;;5104989;28;20240;-72
2021/06/24 04:26:39;;;;;;;8.95;5.93;;;15.20;94.10;;;;;;5107329;28;20221;-73
2021/06/24 04:29:07;;;;;;;11.82;6.25;;;15.20;94.10;;;;;;5107650;28;20224;-73
2021/06/24 04:31:34;;;;;;;8.18;5.45;;;15.20;94.20;;;;;;5097167;28;20197;-72
2021/06/24 04:34:06;;;;;;;10.63;6.10;;;15.20;94.20;;;;;;5103455;28;20288;-72
2021/06/24 04:36:44;;;;;;;11.68;5.75;;;15.20;94.20;;;;;;5109702;28;20565;-73
2021/06/24 04:39:20;;;;;;;13.77;5.70;;;15.20;94.30;;;;;;5105692;28;20284;-73
2021/06/24 04:41:47;;;;;;;10.48;5.70;;;15.30;94.70;;;;;;5101355;28;20549;-72
2021/06/24 04:44:14;;;;;;;11.00;5.55;;;15.30;94.30;;;;;;5101475;28;20213;-72
2021/06/24 04:46:44;;;;;;;10.05;5.68;;;15.20;94.40;;;;;;5108125;28;20209;-72
2021/06/24 04:49:12;;;;;;;10.52;5.95;;;15.30;94.40;;;;;;5106680;28;20223;-73
2021/06/24 04:51:53;;;;;;;11.82;5.22;;;15.30;94.40;;;;;;5107850;28;20201;-72
2021/06/24 04:54:54;;;;;;;10.07;5.28;;;15.30;94.50;;;;;;5105918;28;20668;-73
2021/06/24 04:57:21;;;;;;;7.47;5.30;;;15.30;94.50;;;;;;5105944;28;20220;-72
2021/06/24 05:00:10;;;;;;;12.75;6.90;;;15.30;94.50;;;;;;5106253;28;20261;-73
2021/06/24 05:03:10;;;;;;;15.85;8.55;;;15.30;94.60;;;;;;5106096;28;20211;-74
2021/06/24 05:05:47;;;;;;;13.20;6.60;;;15.30;94.60;;;;;;5107027;28;20261;-74
2021/06/24 05:08:16;;;;;;;7.97;5.43;;;15.30;94.60;;;;;;5106157;28;20691;-74
2021/06/24 05:10:44;;;;;;;12.07;5.18;;;15.40;94.70;;;;;;5110933;28;20194;-70
2021/06/24 05:13:11;;;;;;;9.30;4.95;;;15.40;94.70;;;;;;5104850;28;20189;-71
2021/06/24 05:15:41;;;;;;;9.48;5.10;;;15.40;94.70;;;;;;5108881;28;20193;-71
2021/06/24 05:18:08;;;;;;;11.45;5.25;;;15.40;94.70;;;;;;5112745;28;20201;-72
2021/06/24 05:20:35;;;;;;;9.23;4.97;;;15.50;94.80;;;;;;5110931;28;20209;-71
2021/06/24 05:23:02;;;;;;;11.23;5.10;;;15.50;94.70;;;;;;5113030;28;20325;-69
2021/06/24 05:25:30;;;;;;;10.45;5.35;;;15.50;94.70;;;;;;5112556;28;20201;-71
2021/06/24 05:27:57;;;;;;;10.27;5.28;;;15.50;94.70;;;;;;5112080;28;20278;-69
2021/06/24 05:30:25;;;;;;;9.98;5.05;;;15.50;94.70;;;;;;5111123;28;20209;-70
2021/06/24 05:32:51;;;;;;;8.75;4.93;;;15.50;94.70;;;;;;5109933;28;20197;-70
2021/06/24 05:35:18;;;;;;;8.68;5.10;;;15.50;94.70;;;;;;5110754;28;20569;-70
2021/06/24 05:37:45;;;;;;;9.90;5.40;;;15.50;95.10;;;;;;5111173;28;20228;-68
2021/06/24 05:40:13;;;;;;;11.82;5.63;;;15.50;94.80;;;;;;5112328;28;20213;-71
2021/06/24 05:42:50;;;;;;;8.80;5.05;;;15.50;94.80;;;;;;5111040;28;20560;-69
2021/06/24 05:45:18;;;;;;;11.15;5.35;;;15.50;94.90;;;;;;5111495;28;20210;-71
2021/06/24 05:47:44;;;;;;;9.23;5.00;;;15.50;94.90;;;;;;5109227;27;20850;-70
2021/06/24 05:50:12;;;;;;;12.75;5.38;;;15.50;94.90;;;;;;5112159;28;20216;-70
2021/06/24 05:52:38;;;;;;;5.30;4.50;;;15.50;94.90;;;;;;5109794;28;20544;-72
2021/06/24 05:55:06;;;;;;;7.35;4.55;;;15.60;95.00;;;;;;5111510;28;22906;-69
2021/06/24 05:57:33;;;;;;;9.38;4.28;;;15.60;95.00;;;;;;5110817;28;20198;-70
2021/06/24 06:00:02;;;;;;;7.88;4.10;;;15.60;95.40;;;;;;5107133;28;20660;-70
2021/06/24 06:02:29;;;;;;;7.57;4.13;;;15.60;95.00;;;;;;5108279;28;20298;-70
2021/06/24 06:04:55;;;;;;;7.38;3.60;;;15.60;95.00;;;;;;5111657;28;20753;-71
2021/06/24 06:07:22;;;;;;;7.57;4.03;;;15.60;94.90;;;;;;5111974;28;20200;-69
2021/06/24 06:09:49;;;;;;;8.32;3.83;;;15.70;94.90;;;;;;5110609;28;20213;-70
2021/06/24 06:12:16;;;;;;;7.45;3.67;;;15.70;94.80;;;;;;5110925;28;20657;-71
2021/06/24 06:14:43;;;;;;;8.48;3.67;;;15.70;94.70;;;;;;5111508;28;20205;-71
2021/06/24 06:17:11;;;;;;;6.25;3.65;;;15.70;94.60;;;;;;5110745;28;20547;-71
2021/06/24 06:19:38;;;;;;;8.85;4.07;;;15.80;94.50;;;;;;5111044;28;20246;-72
2021/06/24 06:22:05;;;;;;;6.63;3.20;;;15.80;94.40;;;;;;5110514;28;20228;-70
2021/06/24 06:24:32;;;;;;;6.90;3.35;;;15.80;94.40;;;;;;5108692;28;20250;-72
2021/06/24 06:26:59;;;;;;;7.13;3.10;;;15.80;94.20;;;;;;5111134;28;20204;-71
2021/06/24 06:29:26;;;;;;;8.25;2.95;;;15.90;94.20;;;;;;5106705;28;20220;-71
2021/06/24 06:31:53;;;;;;;8.13;3.20;;;15.90;94.20;;;;;;5109663;27;20212;-72
2021/06/24 06:34:21;;;;;;;7.70;3.55;;;15.90;94.10;;;;;;5111118;28;20258;-70
2021/06/24 06:36:48;;;;;;;5.82;2.88;;;15.90;94.00;;;;;;5110971;28;20275;-70
2021/06/24 06:39:15;;;;;;;5.80;2.92;;;16.00;94.00;;;;;;5111015;28;20201;-68
2021/06/24 06:41:41;;;;;;;4.97;2.88;;;16.00;93.80;;;;;;5105458;28;20265;-68
2021/06/24 06:44:08;;;;;;;7.07;3.40;;;16.00;93.70;;;;;;5104084;28;20333;-69
2021/06/24 06:46:35;;;;;;;7.35;3.22;;;16.00;93.60;;;;;;5110622;28;20205;-69
2021/06/24 06:49:02;;;;;;;8.15;3.10;;;16.10;93.60;;;;;;5106497;28;20228;-68
2021/06/24 06:51:31;;;;;;;7.03;2.60;;;16.10;93.50;;;;;;5110548;27;20279;-70
2021/06/24 06:53:58;;;;;;;7.55;2.80;;;16.10;93.50;;;;;;5111069;28;20204;-70
2021/06/24 06:56:24;;;;;;;11.18;3.95;;;16.20;93.50;;;;;;5110399;28;20284;-70
2021/06/24 06:58:52;;;;;;;9.77;4.00;;;16.20;93.40;;;;;;5110150;28;20211;-70
2021/06/24 07:01:19;;;;;;;6.85;3.10;;;16.30;93.40;;;;;;5109505;28;20197;-70
2021/06/24 07:03:46;;;;;;;6.63;3.17;;;16.40;93.30;;;;;;5110038;28;20207;-70
2021/06/24 07:06:14;;;;;;;7.07;3.00;;;16.40;93.20;;;;;;5110338;28;20221;-69
2021/06/24 07:08:43;;;;;;;7.22;2.67;;;16.50;93.10;;;;;;5110914;28;20213;-70
2021/06/24 07:11:11;;;;;;;8.25;2.80;;;16.60;93.00;;;;;;5109694;28;20212;-72
2021/06/24 07:13:38;;;;;;;10.90;3.13;;;16.70;92.80;;;;;;5110508;28;20209;-71
2021/06/24 07:16:05;;;;;;;7.43;3.08;;;16.80;92.70;;;;;;5108265;28;20649;-70
2021/06/24 07:18:32;;;;;;;6.15;2.90;;;16.80;92.60;;;;;;5109208;28;20197;-69
2021/06/24 07:20:59;;;;;;;6.45;2.60;;;16.90;92.50;;;;;;5110135;28;20201;-69
2021/06/24 07:23:26;;;;;;;5.90;2.70;;;17.00;92.40;;;;;;5109185;28;20201;-71
2021/06/24 07:25:54;;;;;;;5.30;2.40;;;17.00;92.20;;;;;;5109040;28;20201;-70
2021/06/24 07:28:21;;;;;;;7.95;2.50;;;17.10;92.00;;;;;;5110547;28;20295;-71
2021/06/24 07:30:49;;;;;;;8.40;3.00;;;17.10;91.80;;;;;;5109668;28;20209;-71
2021/06/24 07:33:17;;;;;;;7.38;3.60;;;17.10;91.50;;;;;;5108269;28;20213;-72
2021/06/24 07:35:44;;;;;;;10.45;4.53;;;17.20;91.30;;;;;;5110119;28;20205;-70
2021/06/24 07:38:11;;;;;;;8.23;4.78;;;17.20;91.00;;;;;;5107340;28;20209;-71
2021/06/24 07:40:39;;;;;;;11.45;4.90;;;17.20;90.70;;;;;;5109217;28;20532;-70
2021/06/24 07:43:08;;;;;;;13.07;4.18;;;17.20;90.40;;;;;;5110350;28;20262;-69
2021/06/24 07:45:36;;;;;;;8.13;3.53;;;17.20;90.30;;;;;;5110161;28;20557;-70
2021/06/24 07:48:04;;;;;;;11.55;3.53;;;17.20;90.20;;;;;;5110087;28;20211;-71
2021/06/24 07:50:32;;;;;;;7.35;3.80;;;17.20;90.20;;;;;;5105722;27;20227;-72
2021/06/24 07:52:59;;;;;;;6.95;4.10;;;17.30;90.20;;;;;;5108277;28;20193;-72
2021/06/24 07:55:33;;;;;;;8.30;4.80;;;17.30;90.10;;;;;;5106003;28;20293;-71
2021/06/24 07:58:00;;;;;;;13.07;5.35;;;17.30;90.00;;;;;;5105238;28;20213;-71
2021/06/24 08:00:28;;;;;;;9.43;5.88;;;17.30;89.80;;;;;;5108370;28;20197;-71
2021/06/24 08:02:55;;;;;;;10.27;5.00;;;17.40;89.50;;;;;;5104817;28;20193;-72
2021/06/24 08:05:22;;;;;;;10.77;5.85;;;17.50;89.30;;;;;;5105413;28;20237;-71
2021/06/24 08:07:49;;;;;;;11.25;4.47;;;17.50;88.90;;;;;;5109156;28;20287;-71
2021/06/24 08:10:17;;;;;;;6.93;3.55;;;17.50;88.50;;;;;;5102575;28;20216;-69
2021/06/24 08:12:44;;;;;;;9.98;4.30;;;17.60;88.10;;;;;;5110005;28;20193;-71
2021/06/24 08:15:13;;;;;;;8.15;3.85;;;17.60;87.70;;;;;;5102940;28;20568;-72
2021/06/24 08:17:42;;;;;;;8.20;3.92;;;17.60;87.30;;;;;;5103065;28;20738;-70
2021/06/24 08:20:10;;;;;;;11.90;4.53;;;17.60;87.10;;;;;;5105930;28;20253;-72
2021/06/24 08:22:37;;;;;;;8.05;4.07;;;17.60;87.00;;;;;;5107090;28;20256;-70
2021/06/24 08:25:05;;;;;;;6.45;4.05;;;17.60;86.90;;;;;;5106850;28;20217;-71
2021/06/24 08:27:32;;;;;;;7.10;4.03;;;17.60;86.70;;;;;;5136004;27;20234;-71
2021/06/24 08:29:59;;;;;;;12.90;3.85;;;17.70;86.60;;;;;;5105127;28;20221;-71
2021/06/24 08:32:26;;;;;;;8.68;4.05;;;17.60;86.40;;;;;;5106894;28;20155;-70
2021/06/24 08:34:55;;;;;;;6.97;3.58;;;17.60;86.40;;;;;;5105827;28;20197;-70
2021/06/24 08:37:22;;;;;;;9.25;4.50;;;17.70;86.50;;;;;;5108399;28;20465;-72
2021/06/24 08:39:49;;;;;;;6.97;3.78;;;17.70;86.50;;;;;;5106575;28;20613;-71
2021/06/24 08:42:16;;;;;;;11.55;4.45;;;17.70;86.30;;;;;;5107811;28;20216;-71
2021/06/24 08:44:44;;;;;;;6.82;4.05;;;17.70;86.00;;;;;;5107335;28;20212;-71
2021/06/24 08:47:13;;;;;;;9.10;4.18;;;17.80;85.60;;;;;;5113261;28;20254;-70
2021/06/24 08:49:41;;;;;;;8.50;4.03;;;17.80;85.40;;;;;;5109391;28;20223;-70
2021/06/24 08:52:11;;;;;;;10.77;4.25;;;17.90;85.40;;;;;;5113050;28;20665;-69
2021/06/24 08:54:38;;;;;;;10.27;4.18;;;17.90;85.10;;;;;;5111162;28;20261;-70
2021/06/24 08:57:06;;;;;;;10.75;4.47;;;18.00;84.80;;;;;;5112160;28;20553;-69
2021/06/24 08:59:32;;;;;;;5.53;4.05;;;18.00;84.70;;;;;;5108678;28;20205;-72
2021/06/24 09:02:00;;;;;;;10.48;3.35;;;18.10;84.80;;;;;;5111763;28;20224;-71
2021/06/24 09:04:29;;;;;;;9.15;3.67;;;18.10;84.50;;;;;;5110795;28;20207;-71
2021/06/24 09:07:07;;;;;;;8.38;4.72;;;18.20;84.20;;;;;;5111918;28;20221;-71
2021/06/24 09:09:37;;;;;;;5.85;3.67;;;18.20;83.90;;;;;;5111380;28;20232;-71
2021/06/24 09:12:06;;;;;;;7.85;3.42;;;18.20;83.90;;;;;;5112700;28;20201;-72
2021/06/24 09:14:41;;;;;;;5.05;2.80;;;18.30;83.70;;;;;;5108266;28;20212;-71
2021/06/24 09:17:09;;;;;;;5.75;2.75;;;18.30;83.60;;;;;;5109166;28;20200;-69
2021/06/24 09:19:40;;;;;;;6.70;3.42;;;18.40;83.60;;;;;;5107062;28;20212;-70
2021/06/24 09:22:09;;;;;;;5.35;3.08;;;18.40;83.40;;;;;;5111808;28;20616;-71
2021/06/24 09:24:39;;;;;;;7.18;3.03;;;18.50;83.20;;;;;;5107904;28;20250;-70
2021/06/24 09:27:24;;;;;;;6.82;3.00;;;18.50;82.90;;;;;;5112508;27;20201;-70
2021/06/24 09:29:51;;;;;;;6.45;3.35;;;18.60;82.70;;;;;;5109637;27;20231;-68
2021/06/24 09:32:29;;;;;;;7.22;3.88;;;18.70;82.70;;;;;;5111396;28;20261;-70
2021/06/24 09:34:56;;;;;;;5.57;3.25;;;18.70;82.50;;;;;;5107367;28;20246;-71
2021/06/24 09:37:23;;;;;;;5.18;3.20;;;18.70;82.30;;;;;;5109113;28;21043;-70
2021/06/24 09:39:54;;;;;;;7.63;4.18;;;18.80;82.10;;;;;;5109420;28;20197;-69
2021/06/24 09:42:22;;;;;;;8.50;4.55;;;18.90;81.70;;;;;;5112686;28;20197;-69
2021/06/24 09:44:50;;;;;;;10.50;5.88;;;19.00;81.50;;;;;;5109815;28;20205;-71
2021/06/24 09:47:19;;;;;;;10.05;4.72;;;19.00;81.30;;;;;;5112475;28;20204;-70
2021/06/24 09:49:57;;;;;;;7.22;4.70;;;19.00;81.00;;;;;;5107351;28;20213;-70
2021/06/24 09:52:25;;;;;;;6.15;4.63;;;19.10;80.80;;;;;;5110274;28;20250;-71
2021/06/24 09:55:02;;;;;;;7.38;3.85;;;19.10;80.50;;;;;;5108386;28;20193;-71
2021/06/24 09:57:29;;;;;;;6.20;3.45;;;19.20;80.30;;;;;;5104232;28;20649;-69
2021/06/24 09:59:56;;;;;;;5.70;2.85;;;19.30;80.10;;;;;;5107746;28;20503;-70
2021/06/24 10:02:23;;;;;;;5.05;2.85;;;19.30;80.00;;;;;;5109955;28;20197;-71
2021/06/24 10:04:50;;;;;;;4.53;2.38;;;19.30;79.60;;;;;;5108437;28;20208;-70
2021/06/24 10:07:20;;;;;;;4.95;3.50;;;19.40;79.40;;;;;;5112147;28;20273;-70
2021/06/24 10:09:47;;;;;;;8.63;3.10;;;19.40;78.90;;;;;;5108685;28;20201;-71
2021/06/24 10:12:17;;;;;;;5.00;3.00;;;19.40;78.70;;;;;;5109571;28;20623;-71
2021/06/24 10:14:44;;;;;;;5.32;2.70;;;19.40;78.50;;;;;;5109788;28;20672;-71
2021/06/24 10:17:12;;;;;;;6.00;3.53;;;19.40;78.20;;;;;;5107046;27;20538;-70
2021/06/24 10:19:40;;;;;;;6.60;3.70;;;19.40;78.20;;;;;;5106217;28;20193;-68
2021/06/24 10:22:11;;;;;;;7.72;4.13;;;19.50;78.40;;;;;;5111076;28;20660;-71
2021/06/24 10:24:42;;;;;;;6.80;3.80;;;19.50;78.40;;;;;;5110063;28;20193;-71
2021/06/24 10:27:11;;;;;;;5.47;3.38;;;19.60;78.20;;;;;;5111630;28;20681;-75
2021/06/24 10:29:45;;;;;;;7.07;4.03;;;19.70;78.20;;;;;;5108930;28;20212;-69
2021/06/24 10:32:24;;;;;;;7.88;4.70;;;19.70;78.00;;;;;;5108153;28;20214;-70
2021/06/24 10:34:52;;;;;;;8.65;4.45;;;19.80;77.80;;;;;;5107295;27;20582;-71
2021/06/24 10:37:22;;;;;;;9.00;4.88;;;19.90;77.60;;;;;;5109313;28;20278;-72
2021/06/24 10:39:51;;;;;;;9.88;4.68;;;20.00;77.30;;;;;;5109325;28;20199;-70
2021/06/24 10:42:19;;;;;;;11.50;5.20;;;20.10;77.00;;;;;;5109215;27;20201;-70
2021/06/24 10:44:54;;;;;;;6.97;4.35;;;20.10;76.50;;;;;;5105236;28;20205;-71
2021/06/24 10:47:39;;;;;;;6.35;3.80;;;20.20;76.50;;;;;;5106190;28;20224;-70
2021/06/24 10:50:39;;;;;;;6.85;4.35;;;20.30;76.60;;;;;;5108484;28;20221;-73
2021/06/24 10:53:47;;;;;;;6.07;4.43;;;20.40;76.10;;;;;;5106688;28;20220;-70
2021/06/24 10:56:43;;;;;;;7.55;4.68;;;20.50;75.80;;;;;;5109209;28;20621;-71
2021/06/24 10:59:30;;;;;;;5.80;3.80;;;20.60;76.10;;;;;;5107984;28;20213;-70
2021/06/24 11:02:12;;;;;;;6.90;3.78;;;20.60;75.00;;;;;;5108830;28;20201;-70
2021/06/24 11:04:48;;;;;;;6.47;3.33;;;20.70;74.50;;;;;;5106816;28;20660;-73
2021/06/24 11:07:38;;;;;;;6.50;2.97;;;20.80;74.10;;;;;;5106612;28;20219;-71
2021/06/24 11:10:30;;;;;;;5.45;2.78;;;20.80;74.60;;;;;;5107203;28;20217;-71
2021/06/24 11:13:04;;;;;;;5.07;3.08;;;20.90;73.20;;;;;;5106259;28;20698;-71
2021/06/24 11:15:49;;;;;;;8.48;3.50;;;20.80;72.50;;;;;;5107400;28;20671;-70
2021/06/24 11:18:53;;;;;;;6.55;4.07;;;20.80;72.20;;;;;;5105035;28;20225;-71
2021/06/24 11:21:23;;;;;;;8.20;3.75;;;20.80;71.70;;;;;;5109460;28;20279;-72
2021/06/24 11:23:54;;;;;;;5.55;3.05;;;20.70;71.20;;;;;;5106301;28;20244;-70
2021/06/24 11:26:30;;;;;;;4.20;3.00;;;20.70;71.40;;;;;;5109947;28;20240;-71
2021/06/24 11:29:01;;;;;;;7.88;3.65;;;20.70;71.70;;;;;;5107234;28;20243;-70
2021/06/24 11:31:37;;;;;;;5.65;3.17;;;20.80;71.80;;;;;;5107522;28;20217;-69
2021/06/24 11:34:13;;;;;;;3.55;2.53;;;20.80;71.20;;;;;;5105859;28;20272;-71
2021/06/24 11:36:47;;;;;;;3.90;2.97;;;20.80;71.10;;;;;;5105978;28;20204;-70
2021/06/24 11:39:23;;;;;;;5.43;2.70;;;20.90;71.20;;;;;;5106963;28;20204;-70
2021/06/24 11:41:54;;;;;;;7.38;2.85;;;21.00;71.10;;;;;;5102587;28;20333;-70
2021/06/24 11:44:25;;;;;;;4.97;3.08;;;21.20;70.80;;;;;;5108745;28;20201;-70
2021/06/24 11:46:57;;;;;;;6.32;2.78;;;21.30;70.70;;;;;;5107836;28;20231;-72
2021/06/24 11:49:33;;;;;;;5.65;3.75;;;21.40;70.70;;;;;;5107984;28;20814;-73
2021/06/24 12:00:43;;;;;;;4.40;3.13;;;21.70;69.60;;;;;;5107589;28;20220;-71
2021/06/24 12:03:18;;;;;;;10.45;7.00;;;21.80;69.30;;;;;;5109841;28;20233;-69
2021/06/24 12:05:52;;;;;;;5.25;4.05;;;21.90;68.60;;;;;;5106843;28;20240;-71
2021/06/24 12:08:24;;;;;;;6.80;2.38;;;21.90;68.00;;;;;;5104355;28;20216;-73
2021/06/24 12:11:03;;;;;;;6.88;2.83;;;21.90;68.00;;;;;;5107018;28;20768;-72
2021/06/24 12:13:30;;;;;;;6.00;2.50;;;21.90;68.10;;;;;;5104295;28;20216;-72
2021/06/24 12:15:59;;;;;;;5.80;2.60;;;21.90;68.30;;;;;;5102044;28;20202;-69
2021/06/24 12:18:37;;;;;;;7.07;2.20;;;21.90;68.10;;;;;;5109591;28;20201;-70
2021/06/24 12:21:07;;;;;;;6.68;2.35;;;21.90;67.90;;;;;;5105600;28;20217;-72
2021/06/24 12:23:42;;;;;;;6.70;2.40;;;21.90;68.20;;;;;;5107309;28;20675;-72
2021/06/24 12:26:09;;;;;;;6.53;2.15;;;22.00;68.10;;;;;;5106221;28;20203;-72
2021/06/24 12:28:36;;;;;;;6.50;2.75;;;22.10;68.10;;;;;;5108562;28;20197;-72
2021/06/24 12:31:05;;;;;;;5.45;2.10;;;22.20;67.70;;;;;;5106253;28;20225;-71
2021/06/24 12:33:32;;;;;;;5.70;2.20;;;22.30;67.60;;;;;;5109429;28;20208;-70
2021/06/24 12:35:59;;;;;;;7.53;3.75;;;22.40;67.10;;;;;;5105119;28;20335;-70
2021/06/24 12:38:28;;;;;;;8.75;3.47;;;22.50;66.60;;;;;;5109548;28;20220;-70
2021/06/24 12:40:57;;;;;;;7.63;3.42;;;22.60;66.20;;;;;;5107181;28;20201;-68
2021/06/24 12:43:26;;;;;;;6.70;3.53;;;22.80;66.20;;;;;;5108766;28;20207;-73
2021/06/24 12:45:55;;;;;;;6.03;3.08;;;23.00;65.50;;;;;;5102801;28;20205;-69
2021/06/24 12:48:30;;;;;;;4.47;2.80;;;23.20;64.80;;;;;;5103460;28;20661;-69
2021/06/24 12:50:59;;;;;;;5.70;3.20;;;23.30;64.20;;;;;;5102660;28;20213;-71
2021/06/24 12:53:35;;;;;;;4.93;2.55;;;23.60;63.70;;;;;;5104077;28;20197;-69
2021/06/24 12:56:04;;;;;;;5.38;2.38;;;23.70;63.00;;;;;;5104493;28;20201;-70
2021/06/24 12:58:36;;;;;;;5.80;2.13;;;24.00;62.70;;;;;;5108666;28;20212;-67
2021/06/24 13:01:12;;;;;;;5.15;2.08;;;24.20;62.10;;;;;;5106394;28;20186;-71
2021/06/24 13:03:48;;;;;;;4.15;2.00;;;24.30;61.90;;;;;;5108591;28;20223;-68
2021/06/24 13:06:23;;;;;;;4.88;2.00;;;24.50;61.40;;;;;;5104339;28;20311;-69
2021/06/24 13:09:04;;;;;;;3.95;2.10;;;24.40;61.00;;;;;;5105892;28;20213;-67
2021/06/24 13:11:33;;;;;;;3.72;2.00;;;24.50;60.90;;;;;;5105827;28;20245;-70